createdAt,value
2019-02-19T00:00:22.663Z,1008.88
2019-02-19T00:01:22.659Z,1008.89
2019-02-19T00:02:22.665Z,1008.81
2019-02-19T00:03:22.688Z,1008.84
2019-02-19T00:04:22.685Z,1008.79
2019-02-19T00:05:22.685Z,1008.73
2019-02-19T00:06:22.691Z,1008.79
2019-02-19T00:07:22.691Z,1008.78
2019-02-19T00:08:22.706Z,1008.81
2019-02-19T00:09:22.710Z,1008.84
2019-02-19T00:10:22.716Z,1008.78
2019-02-19T00:11:22.721Z,1008.78
2019-02-19T00:12:22.733Z,1008.78
2019-02-19T00:13:22.733Z,1008.78
2019-02-19T00:14:22.747Z,1008.74
2019-02-19T00:15:22.746Z,1008.74
2019-02-19T00:16:22.756Z,1008.73
2019-02-19T00:17:22.758Z,1008.76
2019-02-19T00:18:22.762Z,1008.83
2019-02-19T00:19:22.772Z,1008.79
2019-02-19T00:20:22.771Z,1008.80
2019-02-19T00:21:22.781Z,1008.77
2019-02-19T00:22:22.784Z,1008.79
2019-02-19T00:23:22.806Z,1008.79
2019-02-19T00:24:22.797Z,1008.79
2019-02-19T00:25:22.803Z,1008.81
2019-02-19T00:26:22.813Z,1008.86
2019-02-19T00:27:22.819Z,1008.85
2019-02-19T00:28:22.816Z,1008.82
2019-02-19T00:29:22.829Z,1008.85
2019-02-19T00:30:22.829Z,1008.84
2019-02-19T00:31:22.836Z,1008.86
2019-02-19T00:32:22.844Z,1008.87
2019-02-19T00:33:22.850Z,1008.85
2019-02-19T00:34:22.854Z,1008.90
2019-02-19T00:35:22.893Z,1008.81
2019-02-19T00:36:22.862Z,1008.84
2019-02-19T00:37:22.872Z,1008.81
2019-02-19T00:38:22.879Z,1008.80
2019-02-19T00:39:22.883Z,1008.77
2019-02-19T00:40:22.892Z,1008.79
2019-02-19T00:41:22.891Z,1008.82
2019-02-19T00:42:22.901Z,1008.75
2019-02-19T00:43:22.912Z,1008.78
2019-02-19T00:44:22.910Z,1008.75
2019-02-19T00:45:22.914Z,1008.80
2019-02-19T00:46:22.926Z,1008.78
2019-02-19T00:47:22.933Z,1008.81
2019-02-19T00:48:22.933Z,1008.78
2019-02-19T00:49:22.936Z,1008.76
2019-02-19T00:50:22.939Z,1008.79
2019-02-19T00:51:22.953Z,1008.82
2019-02-19T00:52:22.958Z,1008.79
2019-02-19T00:53:22.968Z,1008.79
2019-02-19T00:54:22.971Z,1008.80
2019-02-19T00:55:22.978Z,1008.81
2019-02-19T00:56:22.978Z,1008.77
2019-02-19T00:57:22.988Z,1008.79
2019-02-19T00:58:22.990Z,1008.77
2019-02-19T00:59:23.000Z,1008.80
2019-02-19T01:00:23.010Z,1008.78
2019-02-19T01:01:23.003Z,1008.79
2019-02-19T01:02:23.014Z,1008.81
2019-02-19T01:03:23.450Z,1008.84
2019-02-19T01:04:23.045Z,1008.84
2019-02-19T01:05:23.035Z,1008.87
2019-02-19T01:06:23.035Z,1008.81
2019-02-19T01:07:23.042Z,1008.84
2019-02-19T01:08:23.049Z,1008.85
2019-02-19T01:09:23.051Z,1008.86
2019-02-19T01:10:23.061Z,1008.81
2019-02-19T01:11:23.065Z,1008.81
2019-02-19T01:12:23.068Z,1008.85
2019-02-19T01:13:23.074Z,1008.84
2019-02-19T01:14:23.083Z,1008.93
2019-02-19T01:15:25.440Z,1008.82
2019-02-19T01:16:23.090Z,1008.86
2019-02-19T01:17:23.096Z,1008.86
2019-02-19T01:18:23.106Z,1008.81
2019-02-19T01:19:23.228Z,1008.85
2019-02-19T01:20:23.113Z,1008.86
2019-02-19T01:21:23.125Z,1008.83
2019-02-19T01:22:23.129Z,1008.87
2019-02-19T01:23:23.135Z,1008.84
2019-02-19T01:24:23.147Z,1008.88
2019-02-19T01:25:23.141Z,1008.92
2019-02-19T01:26:23.181Z,1008.88
2019-02-19T01:27:23.158Z,1008.90
2019-02-19T01:28:23.162Z,1008.87
2019-02-19T01:29:23.164Z,1008.88
2019-02-19T01:30:23.170Z,1008.91
2019-02-19T01:31:23.173Z,1008.91
2019-02-19T01:32:23.187Z,1008.91
2019-02-19T01:33:23.195Z,1008.90
2019-02-19T01:34:23.190Z,1008.92
2019-02-19T01:35:23.197Z,1008.89
2019-02-19T01:36:23.202Z,1008.93
2019-02-19T01:37:23.211Z,1008.94
2019-02-19T01:38:23.221Z,1008.93
2019-02-19T01:39:23.233Z,1008.98
2019-02-19T01:40:23.231Z,1008.93
2019-02-19T01:41:23.237Z,1008.95
2019-02-19T01:42:23.237Z,1008.92
2019-02-19T01:43:23.246Z,1008.95
2019-02-19T01:44:23.258Z,1008.94
2019-02-19T01:45:23.251Z,1008.92
2019-02-19T01:46:23.261Z,1008.94
2019-02-19T01:47:24.986Z,1008.90
2019-02-19T01:48:23.270Z,1008.85
2019-02-19T01:49:23.276Z,1008.91
2019-02-19T01:50:23.279Z,1008.88
2019-02-19T01:51:23.286Z,1008.85
2019-02-19T01:52:23.295Z,1008.81
2019-02-19T01:53:23.301Z,1008.81
2019-02-19T01:54:23.306Z,1008.86
2019-02-19T01:55:23.306Z,1008.85
2019-02-19T01:56:23.312Z,1008.87
2019-02-19T01:57:23.321Z,1008.92
2019-02-19T01:58:23.321Z,1008.89
2019-02-19T01:59:23.327Z,1008.89
2019-02-19T02:00:23.334Z,1008.83
2019-02-19T02:01:23.341Z,1008.83
2019-02-19T02:02:23.349Z,1008.85
2019-02-19T02:03:23.350Z,1008.83
2019-02-19T02:04:23.359Z,1008.84
2019-02-19T02:05:23.363Z,1008.82
2019-02-19T02:06:23.370Z,1008.84
2019-02-19T02:07:23.378Z,1008.78
2019-02-19T02:08:23.369Z,1008.79
2019-02-19T02:09:23.372Z,1008.78
2019-02-19T02:10:23.387Z,1008.74
2019-02-19T02:11:23.397Z,1008.72
2019-02-19T02:12:23.398Z,1008.72
2019-02-19T02:13:23.407Z,1008.72
2019-02-19T02:14:23.411Z,1008.71
2019-02-19T02:15:23.417Z,1008.73
2019-02-19T02:16:23.426Z,1008.71
2019-02-19T02:17:23.430Z,1008.71
2019-02-19T02:18:23.446Z,1008.71
2019-02-19T02:19:23.453Z,1008.76
2019-02-19T02:20:23.443Z,1008.71
2019-02-19T02:21:23.446Z,1008.68
2019-02-19T02:22:23.455Z,1008.69
2019-02-19T02:23:23.466Z,1008.69
2019-02-19T02:24:23.472Z,1008.70
2019-02-19T02:25:23.479Z,1008.71
2019-02-19T02:26:23.485Z,1008.74
2019-02-19T02:27:23.478Z,1008.66
2019-02-19T02:28:23.485Z,1008.74
2019-02-19T02:29:23.497Z,1008.73
2019-02-19T02:30:23.495Z,1008.68
2019-02-19T02:31:23.501Z,1008.70
2019-02-19T02:32:23.509Z,1008.70
2019-02-19T02:33:23.525Z,1008.68
2019-02-19T02:34:23.548Z,1008.65
2019-02-19T02:35:23.618Z,1008.66
2019-02-19T02:36:23.704Z,1008.71
2019-02-19T02:37:23.679Z,1008.69
2019-02-19T02:38:23.549Z,1008.71
2019-02-19T02:39:23.574Z,1008.69
2019-02-19T02:40:23.653Z,1008.74
2019-02-19T02:41:23.713Z,1008.75
2019-02-19T02:42:23.649Z,1008.74
2019-02-19T02:43:23.575Z,1008.76
2019-02-19T02:44:23.577Z,1008.82
2019-02-19T02:45:23.582Z,1008.82
2019-02-19T02:46:23.586Z,1008.83
2019-02-19T02:47:23.596Z,1008.81
2019-02-19T02:48:23.594Z,1008.85
2019-02-19T02:49:23.600Z,1008.85
2019-02-19T02:50:23.611Z,1008.83
2019-02-19T02:51:23.619Z,1008.76
2019-02-19T02:52:23.619Z,1008.76
2019-02-19T02:53:23.623Z,1008.75
2019-02-19T02:54:23.629Z,1008.78
2019-02-19T02:55:23.635Z,1008.72
2019-02-19T02:56:23.643Z,1008.79
2019-02-19T02:57:23.650Z,1008.81
2019-02-19T02:58:23.652Z,1008.87
2019-02-19T02:59:23.650Z,1008.87
2019-02-19T03:00:23.672Z,1008.91
2019-02-19T03:01:23.690Z,1008.89
2019-02-19T03:02:23.672Z,1008.90
2019-02-19T03:03:23.669Z,1008.88
2019-02-19T03:04:23.681Z,1008.89
2019-02-19T03:05:25.389Z,1008.88
2019-02-19T03:06:23.688Z,1008.89
2019-02-19T03:07:23.704Z,1008.88
2019-02-19T03:08:23.704Z,1008.89
2019-02-19T03:09:23.712Z,1008.95
2019-02-19T03:10:23.714Z,1008.96
2019-02-19T03:11:23.720Z,1008.97
2019-02-19T03:12:23.731Z,1008.94
2019-02-19T03:13:23.729Z,1008.93
2019-02-19T03:14:23.737Z,1008.91
2019-02-19T03:15:23.742Z,1008.93
2019-02-19T03:16:23.745Z,1008.96
2019-02-19T03:17:23.755Z,1008.98
2019-02-19T03:18:23.758Z,1008.98
2019-02-19T03:19:23.768Z,1008.94
2019-02-19T03:20:23.768Z,1008.94
2019-02-19T03:21:23.777Z,1008.96
2019-02-19T03:22:23.788Z,1008.93
2019-02-19T03:23:23.789Z,1008.94
2019-02-19T03:24:23.790Z,1008.97
2019-02-19T03:25:23.796Z,1008.94
2019-02-19T03:26:23.803Z,1009.02
2019-02-19T03:27:23.809Z,1008.96
2019-02-19T03:28:23.822Z,1009.01
2019-02-19T03:29:23.824Z,1009.01
2019-02-19T03:30:23.823Z,1008.97
2019-02-19T03:31:23.841Z,1009.04
2019-02-19T03:32:23.849Z,1009.00
2019-02-19T03:33:23.839Z,1009.05
2019-02-19T03:34:23.846Z,1009.04
2019-02-19T03:35:23.847Z,1009.08
2019-02-19T03:36:23.867Z,1009.09
2019-02-19T03:37:23.866Z,1009.09
2019-02-19T03:38:23.866Z,1009.12
2019-02-19T03:39:23.882Z,1009.14
2019-02-19T03:40:23.875Z,1009.17
2019-02-19T03:41:23.884Z,1009.18
2019-02-19T03:42:23.895Z,1009.15
2019-02-19T03:43:23.893Z,1009.16
2019-02-19T03:44:23.905Z,1009.12
2019-02-19T03:45:23.904Z,1009.14
2019-02-19T03:46:23.914Z,1009.12
2019-02-19T03:47:23.913Z,1009.12
2019-02-19T03:48:23.947Z,1009.14
2019-02-19T03:49:23.929Z,1009.18
2019-02-19T03:50:23.930Z,1009.16
2019-02-19T03:51:23.936Z,1009.18
2019-02-19T03:52:23.949Z,1009.21
2019-02-19T03:53:23.946Z,1009.20
2019-02-19T03:54:23.958Z,1009.21
2019-02-19T03:55:23.959Z,1009.20
2019-02-19T03:56:23.962Z,1009.27
2019-02-19T03:57:23.968Z,1009.27
2019-02-19T03:58:23.971Z,1009.28
2019-02-19T03:59:23.981Z,1009.29
2019-02-19T04:00:23.984Z,1009.27
2019-02-19T04:01:24.010Z,1009.31
2019-02-19T04:02:24.003Z,1009.31
2019-02-19T04:03:24.008Z,1009.35
2019-02-19T04:04:24.018Z,1009.35
2019-02-19T04:05:24.021Z,1009.38
2019-02-19T04:06:24.020Z,1009.38
2019-02-19T04:07:24.025Z,1009.35
2019-02-19T04:08:24.026Z,1009.36
2019-02-19T04:09:24.035Z,1009.37
2019-02-19T04:10:24.028Z,1009.40
2019-02-19T04:11:24.046Z,1009.44
2019-02-19T04:12:24.046Z,1009.42
2019-02-19T04:13:24.054Z,1009.41
2019-02-19T04:14:24.055Z,1009.41
2019-02-19T04:15:24.065Z,1009.45
2019-02-19T04:16:24.074Z,1009.42
2019-02-19T04:17:24.075Z,1009.49
2019-02-19T04:18:24.084Z,1009.46
2019-02-19T04:19:24.085Z,1009.40
2019-02-19T04:20:24.095Z,1009.35
2019-02-19T04:21:24.101Z,1009.26
2019-02-19T04:22:24.100Z,1009.31
2019-02-19T04:23:24.107Z,1009.34
2019-02-19T04:24:24.110Z,1009.34
2019-02-19T04:25:24.117Z,1009.33
2019-02-19T04:26:24.123Z,1009.36
2019-02-19T04:27:24.130Z,1009.35
2019-02-19T04:28:24.136Z,1009.39
2019-02-19T04:29:24.143Z,1009.34
2019-02-19T04:30:24.146Z,1009.31
2019-02-19T04:31:24.150Z,1009.27
2019-02-19T04:32:24.153Z,1009.28
2019-02-19T04:33:24.158Z,1009.34
2019-02-19T04:34:24.164Z,1009.36
2019-02-19T04:35:24.169Z,1009.30
2019-02-19T04:36:24.174Z,1009.36
2019-02-19T04:37:24.177Z,1009.40
2019-02-19T04:38:24.184Z,1009.42
2019-02-19T04:39:24.187Z,1009.40
2019-02-19T04:40:24.194Z,1009.36
2019-02-19T04:41:24.201Z,1009.32
2019-02-19T04:42:24.207Z,1009.38
2019-02-19T04:43:24.210Z,1009.41
2019-02-19T04:44:24.217Z,1009.45
2019-02-19T04:45:24.219Z,1009.51
2019-02-19T04:46:31.146Z,1009.53
2019-02-19T04:47:24.232Z,1009.52
2019-02-19T04:48:24.234Z,1009.55
2019-02-19T04:49:24.241Z,1009.52
2019-02-19T04:50:24.247Z,1009.56
2019-02-19T04:51:24.250Z,1009.54
2019-02-19T04:52:24.259Z,1009.52
2019-02-19T04:53:24.263Z,1009.52
2019-02-19T04:54:24.283Z,1009.52
2019-02-19T04:55:24.282Z,1009.58
2019-02-19T04:56:24.276Z,1009.56
2019-02-19T04:57:24.285Z,1009.58
2019-02-19T04:58:24.289Z,1009.51
2019-02-19T04:59:24.293Z,1009.59
2019-02-19T05:00:24.299Z,1009.58
2019-02-19T05:01:24.304Z,1009.41
2019-02-19T05:02:24.311Z,1009.44
2019-02-19T05:03:24.312Z,1009.45
2019-02-19T05:04:24.317Z,1009.54
2019-02-19T05:05:24.332Z,1009.66
2019-02-19T05:06:24.330Z,1009.65
2019-02-19T05:07:24.334Z,1009.62
2019-02-19T05:08:24.344Z,1009.54
2019-02-19T05:09:24.356Z,1009.62
2019-02-19T05:10:24.352Z,1009.75
2019-02-19T05:11:24.359Z,1009.71
2019-02-19T05:12:24.396Z,1009.72
2019-02-19T05:13:24.369Z,1009.60
2019-02-19T05:14:24.373Z,1009.62
2019-02-19T05:15:24.378Z,1009.62
2019-02-19T05:16:24.385Z,1009.60
2019-02-19T05:17:24.391Z,1009.53
2019-02-19T05:18:24.402Z,1009.53
2019-02-19T05:19:24.394Z,1009.51
2019-02-19T05:20:24.404Z,1009.54
2019-02-19T05:21:24.407Z,1009.52
2019-02-19T05:22:24.411Z,1009.49
2019-02-19T05:23:24.418Z,1009.45
2019-02-19T05:24:24.427Z,1009.45
2019-02-19T05:25:24.431Z,1009.48
2019-02-19T05:26:24.429Z,1009.46
2019-02-19T05:27:24.438Z,1009.47
2019-02-19T05:28:24.454Z,1009.47
2019-02-19T05:29:24.454Z,1009.47
2019-02-19T05:30:24.454Z,1009.55
2019-02-19T05:31:24.457Z,1009.56
2019-02-19T05:32:24.454Z,1009.58
2019-02-19T05:33:24.465Z,1009.58
2019-02-19T05:34:24.473Z,1009.61
2019-02-19T05:35:24.476Z,1009.70
2019-02-19T05:36:24.484Z,1009.65
2019-02-19T05:37:24.492Z,1009.65
2019-02-19T05:38:24.496Z,1009.69
2019-02-19T05:39:24.513Z,1009.75
2019-02-19T05:40:24.514Z,1009.68
2019-02-19T05:41:24.509Z,1009.66
2019-02-19T05:42:24.515Z,1009.74
2019-02-19T05:43:24.519Z,1009.74
2019-02-19T05:44:24.534Z,1009.76
2019-02-19T05:45:24.535Z,1009.74
2019-02-19T05:46:24.531Z,1009.70
2019-02-19T05:47:24.537Z,1009.72
2019-02-19T05:48:24.547Z,1009.77
2019-02-19T05:49:24.549Z,1009.74
2019-02-19T05:50:24.557Z,1009.70
2019-02-19T05:51:24.562Z,1009.67
2019-02-19T05:52:24.559Z,1009.63
2019-02-19T05:53:24.570Z,1009.56
2019-02-19T05:54:24.572Z,1009.63
2019-02-19T05:55:24.579Z,1009.63
2019-02-19T05:56:24.585Z,1009.64
2019-02-19T05:57:24.593Z,1009.67
2019-02-19T05:58:24.598Z,1009.75
2019-02-19T05:59:24.598Z,1009.70
2019-02-19T06:00:24.615Z,1009.74
2019-02-19T06:01:24.609Z,1009.74
2019-02-19T06:02:24.617Z,1009.79
2019-02-19T06:03:24.621Z,1009.78
2019-02-19T06:04:24.627Z,1009.76
2019-02-19T06:05:24.631Z,1009.75
2019-02-19T06:06:24.633Z,1009.82
2019-02-19T06:07:24.649Z,1009.88
2019-02-19T06:08:24.642Z,1009.86
2019-02-19T06:09:24.652Z,1009.84
2019-02-19T06:10:24.656Z,1009.85
2019-02-19T06:11:24.663Z,1009.80
2019-02-19T06:12:24.665Z,1009.85
2019-02-19T06:13:24.671Z,1009.80
2019-02-19T06:14:24.677Z,1009.83
2019-02-19T06:15:24.678Z,1009.86
2019-02-19T06:16:24.690Z,1009.80
2019-02-19T06:17:24.688Z,1009.79
2019-02-19T06:18:24.694Z,1009.88
2019-02-19T06:19:24.697Z,1009.89
2019-02-19T06:20:24.752Z,1009.88
2019-02-19T06:21:24.706Z,1009.91
2019-02-19T06:22:24.713Z,1009.86
2019-02-19T06:23:24.726Z,1009.90
2019-02-19T06:24:24.724Z,1009.94
2019-02-19T06:25:24.734Z,1009.92
2019-02-19T06:26:24.733Z,1009.94
2019-02-19T06:27:24.739Z,1010.03
2019-02-19T06:28:24.745Z,1009.91
2019-02-19T06:29:24.750Z,1010.00
2019-02-19T06:30:24.754Z,1010.06
2019-02-19T06:31:24.757Z,1010.00
2019-02-19T06:32:24.767Z,1010.08
2019-02-19T06:33:24.768Z,1010.04
2019-02-19T06:34:24.772Z,1010.07
2019-02-19T06:35:24.784Z,1010.12
2019-02-19T06:36:24.786Z,1010.09
2019-02-19T06:37:24.792Z,1010.19
2019-02-19T06:38:24.796Z,1010.17
2019-02-19T06:39:24.809Z,1010.16
2019-02-19T06:40:24.804Z,1010.22
2019-02-19T06:41:24.809Z,1010.31
2019-02-19T06:42:24.830Z,1010.30
2019-02-19T06:43:24.823Z,1010.26
2019-02-19T06:44:24.825Z,1010.30
2019-02-19T06:45:24.841Z,1010.27
2019-02-19T06:46:24.857Z,1010.23
2019-02-19T06:47:24.845Z,1010.22
2019-02-19T06:48:24.847Z,1010.25
2019-02-19T06:49:24.853Z,1010.26
2019-02-19T06:50:24.853Z,1010.29
2019-02-19T06:51:24.863Z,1010.31
2019-02-19T06:52:24.872Z,1010.32
2019-02-19T06:53:24.872Z,1010.42
2019-02-19T06:54:24.881Z,1010.37
2019-02-19T06:55:24.879Z,1010.38
2019-02-19T06:56:24.895Z,1010.35
2019-02-19T06:57:24.895Z,1010.43
2019-02-19T06:58:24.896Z,1010.37
2019-02-19T06:59:24.901Z,1010.38
2019-02-19T07:00:24.924Z,1010.41
2019-02-19T07:01:24.911Z,1010.38
2019-02-19T07:02:24.908Z,1010.44
2019-02-19T07:03:24.926Z,1010.51
2019-02-19T07:05:24.930Z,1010.62
2019-02-19T07:06:24.937Z,1010.60
2019-02-19T07:07:24.940Z,1010.60
2019-02-19T07:08:24.952Z,1010.63
2019-02-19T07:09:24.957Z,1010.64
2019-02-19T07:10:24.971Z,1010.63
2019-02-19T07:11:24.966Z,1010.69
2019-02-19T07:12:24.972Z,1010.68
2019-02-19T07:13:24.972Z,1010.75
2019-02-19T07:14:24.975Z,1010.76
2019-02-19T07:15:24.983Z,1010.74
2019-02-19T07:16:24.988Z,1010.87
2019-02-19T07:17:24.997Z,1010.84
2019-02-19T07:18:24.997Z,1010.90
2019-02-19T07:19:25.014Z,1010.87
2019-02-19T07:20:25.023Z,1010.88
2019-02-19T07:21:25.017Z,1010.88
2019-02-19T07:22:25.017Z,1010.89
2019-02-19T07:23:25.033Z,1010.90
2019-02-19T07:24:25.039Z,1010.94
2019-02-19T07:25:25.036Z,1010.90
2019-02-19T07:26:25.044Z,1010.92
2019-02-19T07:27:25.045Z,1010.72
2019-02-19T07:28:25.048Z,1010.92
2019-02-19T07:29:25.055Z,1010.89
2019-02-19T07:30:25.061Z,1010.90
2019-02-19T07:31:25.061Z,1010.97
2019-02-19T07:32:25.080Z,1010.92
2019-02-19T07:33:25.081Z,1010.95
2019-02-19T07:34:25.083Z,1010.96
2019-02-19T07:35:25.090Z,1010.97
2019-02-19T07:36:25.107Z,1010.94
2019-02-19T07:37:25.096Z,1011.01
2019-02-19T07:38:25.103Z,1011.02
2019-02-19T07:39:25.110Z,1010.98
2019-02-19T07:40:25.121Z,1010.98
2019-02-19T07:41:25.125Z,1011.00
2019-02-19T07:42:25.122Z,1011.05
2019-02-19T07:43:25.129Z,1011.02
2019-02-19T07:44:25.151Z,1011.04
2019-02-19T07:45:25.148Z,1011.01
2019-02-19T07:46:25.144Z,1011.05
2019-02-19T07:47:25.147Z,1011.06
2019-02-19T07:48:25.154Z,1011.13
2019-02-19T07:49:25.166Z,1011.12
2019-02-19T07:50:25.164Z,1011.05
2019-02-19T07:51:25.176Z,1011.12
2019-02-19T07:52:25.182Z,1011.32
2019-02-19T07:53:25.183Z,1011.17
2019-02-19T07:54:25.186Z,1011.23
2019-02-19T07:55:25.204Z,1011.24
2019-02-19T07:56:25.201Z,1011.19
2019-02-19T07:57:25.202Z,1011.21
2019-02-19T07:58:25.208Z,1011.26
2019-02-19T07:59:25.224Z,1011.27
2019-02-19T08:00:25.228Z,1011.29
2019-02-19T08:01:25.224Z,1011.27
2019-02-19T08:02:25.238Z,1011.30
2019-02-19T08:03:25.234Z,1011.34
2019-02-19T08:04:25.258Z,1011.20
2019-02-19T08:05:25.250Z,1011.27
2019-02-19T08:06:25.256Z,1011.27
2019-02-19T08:07:25.264Z,1011.32
2019-02-19T08:08:25.261Z,1011.31
2019-02-19T08:09:25.268Z,1011.29
2019-02-19T08:10:25.280Z,1011.34
2019-02-19T08:11:25.291Z,1011.35
2019-02-19T08:12:26.317Z,1011.38
2019-02-19T08:13:25.293Z,1011.40
2019-02-19T08:14:25.298Z,1011.40
2019-02-19T08:15:25.301Z,1011.35
2019-02-19T08:16:25.303Z,1011.43
2019-02-19T08:17:32.857Z,1011.39
2019-02-19T08:18:25.368Z,1011.45
2019-02-19T08:19:25.312Z,1011.44
2019-02-19T08:20:25.325Z,1011.42
2019-02-19T08:21:25.331Z,1011.38
2019-02-19T08:22:25.340Z,1011.41
2019-02-19T08:23:25.341Z,1011.41
2019-02-19T08:24:25.341Z,1011.39
2019-02-19T08:25:25.354Z,1011.34
2019-02-19T08:26:25.351Z,1011.43
2019-02-19T08:27:25.357Z,1011.42
2019-02-19T08:28:25.363Z,1011.31
2019-02-19T08:29:25.370Z,1011.46
2019-02-19T08:30:25.376Z,1011.46
2019-02-19T08:31:25.383Z,1011.54
2019-02-19T08:32:25.389Z,1011.49
2019-02-19T08:33:25.392Z,1011.59
2019-02-19T08:34:25.395Z,1011.51
2019-02-19T08:35:25.399Z,1011.56
2019-02-19T08:36:25.408Z,1011.54
2019-02-19T08:37:25.433Z,1011.64
2019-02-19T08:38:25.415Z,1011.44
2019-02-19T08:39:25.442Z,1011.56
2019-02-19T08:40:25.432Z,1011.69
2019-02-19T08:41:25.431Z,1011.67
2019-02-19T08:42:25.437Z,1011.73
2019-02-19T08:43:25.456Z,1011.86
2019-02-19T08:44:25.477Z,1011.64
2019-02-19T08:45:25.463Z,1011.86
2019-02-19T08:46:25.473Z,1011.85
2019-02-19T08:47:25.472Z,1011.71
2019-02-19T08:48:25.479Z,1011.83
2019-02-19T08:49:25.544Z,1011.69
2019-02-19T08:50:25.486Z,1011.89
2019-02-19T08:51:25.488Z,1011.68
2019-02-19T08:52:25.495Z,1011.76
2019-02-19T08:53:25.505Z,1011.88
2019-02-19T08:54:25.508Z,1011.75
2019-02-19T08:55:25.511Z,1011.71
2019-02-19T08:56:25.518Z,1011.80
2019-02-19T08:57:25.525Z,1011.81
2019-02-19T08:58:25.531Z,1011.66
2019-02-19T08:59:25.537Z,1011.84
2019-02-19T09:00:25.545Z,1011.84
2019-02-19T09:01:25.550Z,1011.87
2019-02-19T09:02:25.556Z,1011.80
2019-02-19T09:03:25.562Z,1012.14
2019-02-19T09:04:25.563Z,1012.15
2019-02-19T09:05:25.575Z,1012.06
2019-02-19T09:06:27.475Z,1012.64
2019-02-19T09:07:25.588Z,1012.04
2019-02-19T09:08:25.592Z,1011.75
2019-02-19T09:09:25.612Z,1012.16
2019-02-19T09:10:25.611Z,1012.00
2019-02-19T09:11:25.610Z,1012.14
2019-02-19T09:12:25.633Z,1011.84
2019-02-19T09:13:25.630Z,1012.13
2019-02-19T09:14:25.636Z,1011.94
2019-02-19T09:15:25.647Z,1012.27
2019-02-19T09:16:25.662Z,1011.93
2019-02-19T09:17:25.660Z,1012.27
2019-02-19T09:18:25.665Z,1011.91
2019-02-19T09:19:25.676Z,1011.71
2019-02-19T09:20:25.681Z,1011.87
2019-02-19T09:21:25.687Z,1012.05
2019-02-19T09:22:25.708Z,1012.46
2019-02-19T09:23:25.708Z,1012.49
2019-02-19T09:24:25.710Z,1012.07
2019-02-19T09:25:25.720Z,1011.96
2019-02-19T09:26:25.726Z,1012.08
2019-02-19T09:27:25.733Z,1012.27
2019-02-19T09:28:25.742Z,1013.05
2019-02-19T09:29:25.749Z,1013.06
2019-02-19T09:30:25.758Z,1013.24
2019-02-19T09:31:25.775Z,1012.33
2019-02-19T09:32:25.783Z,1012.33
2019-02-19T09:33:25.787Z,1012.36
2019-02-19T09:34:25.794Z,1012.24
2019-02-19T09:35:25.801Z,1012.36
2019-02-19T09:36:25.809Z,1012.17
2019-02-19T09:37:25.822Z,1012.41
2019-02-19T09:38:25.834Z,1012.13
2019-02-19T09:39:25.859Z,1012.04
2019-02-19T09:40:25.847Z,1012.14
2019-02-19T09:41:25.867Z,1012.45
2019-02-19T09:42:25.869Z,1012.37
2019-02-19T09:43:25.874Z,1012.36
2019-02-19T09:44:25.884Z,1012.71
2019-02-19T09:45:25.903Z,1013.28
2019-02-19T09:46:25.913Z,1012.99
2019-02-19T09:47:25.919Z,1012.35
2019-02-19T09:48:25.918Z,1012.57
2019-02-19T09:49:25.928Z,1012.60
2019-02-19T09:50:25.935Z,1012.37
2019-02-19T09:51:25.942Z,1012.18
2019-02-19T09:52:25.954Z,1012.02
2019-02-19T09:53:25.964Z,1012.50
2019-02-19T09:54:25.977Z,1012.58
2019-02-19T09:55:25.988Z,1012.79
2019-02-19T09:56:25.993Z,1012.34
2019-02-19T09:57:26.004Z,1012.51
2019-02-19T09:58:26.012Z,1012.49
2019-02-19T09:59:26.021Z,1012.19
2019-02-19T10:00:26.031Z,1012.21
2019-02-19T10:01:28.083Z,1012.10
2019-02-19T10:02:26.048Z,1011.96
2019-02-19T10:03:26.058Z,1011.88
2019-02-19T10:04:26.071Z,1012.21
2019-02-19T10:05:26.077Z,1012.23
2019-02-19T10:06:26.087Z,1012.10
2019-02-19T10:07:26.092Z,1012.23
2019-02-19T10:08:26.103Z,1012.56
2019-02-19T10:09:26.112Z,1012.20
2019-02-19T10:10:26.125Z,1012.01
2019-02-19T10:11:26.134Z,1012.03
2019-02-19T10:12:26.140Z,1012.12
2019-02-19T10:13:26.153Z,1012.19
2019-02-19T10:14:26.163Z,1011.89
2019-02-19T10:15:26.209Z,1012.10
2019-02-19T10:16:26.179Z,1012.11
2019-02-19T10:17:26.189Z,1012.38
2019-02-19T10:18:26.202Z,1012.44
2019-02-19T10:19:26.210Z,1012.31
2019-02-19T10:20:26.221Z,1012.27
2019-02-19T10:21:26.234Z,1012.40
2019-02-19T10:22:26.238Z,1012.48
2019-02-19T10:23:26.245Z,1012.40
2019-02-19T10:24:26.254Z,1012.65
2019-02-19T10:25:26.265Z,1012.30
2019-02-19T10:26:26.283Z,1012.30
2019-02-19T10:27:26.283Z,1012.21
2019-02-19T10:28:26.292Z,1012.20
2019-02-19T10:29:26.302Z,1012.09
2019-02-19T10:30:26.316Z,1012.13
2019-02-19T10:31:26.318Z,1012.47
2019-02-19T10:32:26.378Z,1012.35
2019-02-19T10:33:26.352Z,1012.36
2019-02-19T10:34:26.350Z,1012.50
2019-02-19T10:35:26.366Z,1012.40
2019-02-19T10:36:26.369Z,1012.40
2019-02-19T10:37:26.376Z,1012.69
2019-02-19T10:38:26.389Z,1012.52
2019-02-19T10:39:26.391Z,1012.56
2019-02-19T10:40:26.402Z,1012.64
2019-02-19T10:41:26.413Z,1012.54
2019-02-19T10:42:26.421Z,1012.53
2019-02-19T10:43:26.431Z,1012.68
2019-02-19T10:44:26.442Z,1013.18
2019-02-19T10:45:26.461Z,1012.90
2019-02-19T10:46:26.477Z,1013.12
2019-02-19T10:47:26.486Z,1012.72
2019-02-19T10:48:26.492Z,1012.57
2019-02-19T10:49:26.501Z,1012.90
2019-02-19T10:50:26.524Z,1012.95
2019-02-19T10:51:26.527Z,1013.05
2019-02-19T10:52:26.540Z,1013.07
2019-02-19T10:53:26.553Z,1013.09
2019-02-19T10:54:26.566Z,1013.13
2019-02-19T10:55:26.578Z,1012.92
2019-02-19T10:56:26.597Z,1012.84
2019-02-19T10:57:26.604Z,1012.36
2019-02-19T10:58:26.617Z,1012.16
2019-02-19T10:59:26.630Z,1012.64
2019-02-19T11:00:26.636Z,1012.39
2019-02-19T11:01:26.650Z,1012.21
2019-02-19T11:02:26.664Z,1012.30
2019-02-19T11:03:26.677Z,1012.41
2019-02-19T11:04:26.683Z,1012.40
2019-02-19T11:05:26.694Z,1012.47
2019-02-19T11:06:26.706Z,1012.35
2019-02-19T11:07:26.718Z,1012.32
2019-02-19T11:08:26.725Z,1012.39
2019-02-19T11:09:26.748Z,1012.26
2019-02-19T11:10:26.741Z,1012.30
2019-02-19T11:11:26.762Z,1012.30
2019-02-19T11:12:26.763Z,1012.48
2019-02-19T11:13:26.769Z,1012.38
2019-02-19T11:14:26.774Z,1012.87
2019-02-19T11:15:26.800Z,1012.57
2019-02-19T11:16:26.789Z,1012.63
2019-02-19T11:17:26.841Z,1012.75
2019-02-19T11:18:28.769Z,1012.92
2019-02-19T11:19:26.824Z,1012.84
2019-02-19T11:20:26.830Z,1012.66
2019-02-19T11:21:26.852Z,1012.61
2019-02-19T11:22:26.849Z,1012.64
2019-02-19T11:23:26.868Z,1012.94
2019-02-19T11:24:26.877Z,1012.50
2019-02-19T11:25:26.887Z,1012.34
2019-02-19T11:26:26.887Z,1012.81
2019-02-19T11:27:26.903Z,1012.65
2019-02-19T11:28:26.900Z,1012.84
2019-02-19T11:29:26.921Z,1012.54
2019-02-19T11:30:26.929Z,1012.33
2019-02-19T11:31:26.942Z,1012.24
2019-02-19T11:32:26.954Z,1012.16
2019-02-19T11:33:26.963Z,1012.23
2019-02-19T11:34:26.970Z,1012.44
2019-02-19T11:35:26.979Z,1012.57
2019-02-19T11:36:26.990Z,1012.39
2019-02-19T11:37:27.003Z,1012.27
2019-02-19T11:38:27.008Z,1012.20
2019-02-19T11:39:27.024Z,1012.40
2019-02-19T11:40:27.031Z,1012.68
2019-02-19T11:41:27.049Z,1012.80
2019-02-19T11:42:27.050Z,1012.22
2019-02-19T11:43:27.059Z,1012.30
2019-02-19T11:44:27.086Z,1012.33
2019-02-19T11:45:27.085Z,1012.09
2019-02-19T11:46:27.108Z,1012.23
2019-02-19T11:47:27.107Z,1012.22
2019-02-19T11:48:27.117Z,1012.41
2019-02-19T11:49:27.128Z,1012.40
2019-02-19T11:50:27.136Z,1012.52
2019-02-19T11:51:27.142Z,1012.60
2019-02-19T11:52:27.158Z,1012.44
2019-02-19T11:53:27.174Z,1012.41
2019-02-19T11:54:27.181Z,1012.23
2019-02-19T11:55:27.187Z,1012.30
2019-02-19T11:56:27.200Z,1012.33
2019-02-19T11:57:27.210Z,1012.25
2019-02-19T11:58:27.223Z,1012.09
2019-02-19T11:59:27.229Z,1012.13
2019-02-19T12:00:27.236Z,1012.08
2019-02-19T12:01:27.242Z,1012.06
2019-02-19T12:02:32.727Z,1012.13
2019-02-19T12:03:27.267Z,1012.27
2019-02-19T12:04:27.277Z,1012.25
2019-02-19T12:05:27.293Z,1012.25
2019-02-19T12:06:27.290Z,1012.23